createdAt,value
2022-09-08T00:00:39.348Z,62.40
2022-09-08T00:03:15.752Z,62.20
2022-09-08T00:06:07.104Z,62.20
2022-09-08T00:08:37.395Z,62.10
2022-09-08T00:11:10.215Z,62.20
2022-09-08T00:13:43.967Z,62.10
2022-09-08T00:16:14.439Z,62.00
2022-09-08T00:18:45.035Z,61.90
2022-09-08T00:21:15.297Z,61.90
2022-09-08T00:23:45.443Z,61.80
2022-09-08T00:26:15.741Z,61.80
2022-09-08T00:28:46.298Z,61.70
2022-09-08T00:31:16.831Z,61.80
2022-09-08T00:33:47.844Z,61.70
2022-09-08T00:36:19.445Z,61.80
2022-09-08T00:38:58.302Z,61.90
2022-09-08T00:41:28.661Z,61.70
2022-09-08T00:44:04.096Z,61.70
2022-09-08T00:46:44.358Z,61.70
2022-09-08T00:49:21.568Z,61.70
2022-09-08T00:51:56.299Z,61.80
2022-09-08T00:54:27.933Z,61.70
2022-09-08T00:57:00.389Z,61.70
2022-09-08T00:59:30.665Z,61.70
2022-09-08T01:02:00.857Z,61.70
2022-09-08T01:04:31.191Z,61.70
2022-09-08T01:07:42.885Z,61.60
2022-09-08T01:10:52.843Z,61.60
2022-09-08T01:13:24.731Z,61.50
2022-09-08T01:15:55.334Z,61.60
2022-09-08T01:18:26.012Z,61.50
2022-09-08T01:20:56.536Z,61.50
2022-09-08T01:24:22.816Z,61.50
2022-09-08T01:27:18.146Z,61.80
2022-09-08T01:29:50.476Z,62.00
2022-09-08T01:32:22.457Z,62.30
2022-09-08T01:34:53.188Z,62.50
2022-09-08T01:37:23.366Z,62.70
2022-09-08T01:39:54.081Z,62.50
2022-09-08T01:42:24.427Z,62.40
2022-09-08T01:44:54.733Z,62.30
2022-09-08T01:47:24.962Z,62.30
2022-09-08T01:49:55.066Z,62.30
2022-09-08T01:52:25.462Z,62.20
2022-09-08T01:54:55.716Z,62.10
2022-09-08T01:57:25.944Z,62.20
2022-09-08T01:59:56.274Z,62.20
2022-09-08T02:02:26.771Z,62.20
2022-09-08T02:04:57.058Z,62.10
2022-09-08T02:07:27.753Z,62.10
2022-09-08T02:09:57.953Z,62.10
2022-09-08T02:12:28.380Z,62.20
2022-09-08T02:14:58.544Z,62.20
2022-09-08T02:17:31.055Z,62.10
2022-09-08T02:20:01.166Z,62.10
2022-09-08T02:22:31.286Z,62.00
2022-09-08T02:25:01.854Z,62.10
2022-09-08T02:27:31.963Z,62.10
2022-09-08T02:30:02.331Z,62.10
2022-09-08T02:32:32.544Z,62.20
2022-09-08T02:35:02.669Z,62.10
2022-09-08T02:37:32.922Z,62.20
2022-09-08T02:40:05.275Z,62.00
2022-09-08T02:42:35.458Z,62.10
2022-09-08T02:45:06.441Z,62.00
2022-09-08T02:47:37.259Z,61.90
2022-09-08T02:50:08.596Z,61.90
2022-09-08T02:52:39.126Z,62.00
2022-09-08T02:55:09.547Z,62.00
2022-09-08T02:57:40.377Z,62.10
2022-09-08T03:00:11.396Z,61.90
2022-09-08T03:02:42.155Z,62.20
2022-09-08T03:05:12.611Z,61.90
2022-09-08T03:07:43.264Z,62.00
2022-09-08T03:10:13.369Z,61.90
2022-09-08T03:12:43.554Z,62.20
2022-09-08T03:15:13.719Z,62.10
2022-09-08T03:17:43.905Z,62.10
2022-09-08T03:20:14.168Z,62.10
2022-09-08T03:22:44.427Z,62.40
2022-09-08T03:25:14.865Z,62.30
2022-09-08T03:27:45.102Z,62.50
2022-09-08T03:30:17.501Z,62.50
2022-09-08T03:32:49.840Z,62.20
2022-09-08T03:35:21.297Z,62.20
2022-09-08T03:37:52.491Z,62.60
2022-09-08T03:40:22.699Z,62.50
2022-09-08T03:42:52.894Z,62.60
2022-09-08T03:45:23.733Z,62.60
2022-09-08T03:47:54.822Z,62.40
2022-09-08T03:50:26.062Z,62.30
2022-09-08T03:52:56.533Z,62.70
2022-09-08T03:55:26.774Z,62.60
2022-09-08T03:57:56.910Z,62.70
2022-09-08T04:00:27.394Z,62.70
2022-09-08T04:03:00.167Z,62.70
2022-09-08T04:05:31.406Z,62.60
2022-09-08T04:08:01.896Z,62.40
2022-09-08T04:10:32.310Z,62.30
2022-09-08T04:13:02.754Z,62.50
2022-09-08T04:15:33.154Z,62.50
2022-09-08T04:18:03.509Z,62.60
2022-09-08T04:20:33.747Z,62.50
2022-09-08T04:23:04.590Z,62.50
2022-09-08T04:25:35.275Z,62.20
2022-09-08T04:28:05.668Z,62.30
2022-09-08T04:30:35.909Z,63.00
2022-09-08T04:33:06.084Z,62.30
2022-09-08T04:35:36.167Z,62.30
2022-09-08T04:38:06.313Z,62.30
2022-09-08T04:40:37.369Z,62.30
2022-09-08T04:43:07.452Z,62.50
2022-09-08T04:45:37.578Z,62.40
2022-09-08T04:48:07.937Z,62.60
2022-09-08T04:50:38.300Z,62.30
2022-09-08T04:53:08.486Z,62.70
2022-09-08T04:55:41.923Z,62.50
2022-09-08T04:58:12.013Z,62.30
2022-09-08T05:00:42.235Z,62.40
2022-09-08T05:03:12.597Z,62.70
2022-09-08T05:05:43.103Z,62.80
2022-09-08T05:08:13.300Z,62.40
2022-09-08T05:10:43.394Z,62.30
2022-09-08T05:13:13.585Z,62.80
2022-09-08T05:15:43.808Z,62.50
2022-09-08T05:18:13.988Z,62.40
2022-09-08T05:20:44.104Z,62.50
2022-09-08T05:23:14.233Z,62.80
2022-09-08T05:25:44.373Z,62.60
2022-09-08T05:28:14.453Z,62.70
2022-09-08T05:30:44.678Z,62.80
2022-09-08T05:33:14.852Z,63.00
2022-09-08T05:35:45.131Z,63.10
2022-09-08T05:38:15.265Z,63.50
2022-09-08T05:40:45.443Z,63.50
2022-09-08T05:43:17.062Z,63.60
2022-09-08T05:45:52.072Z,63.70
2022-09-08T05:48:22.287Z,63.80
2022-09-08T05:50:52.490Z,63.80
2022-09-08T05:53:22.776Z,63.90
2022-09-08T05:56:01.202Z,63.90
2022-09-08T05:58:32.331Z,63.80
2022-09-08T06:01:09.014Z,63.80
2022-09-08T06:03:40.448Z,63.90
2022-09-08T06:06:13.411Z,63.80
2022-09-08T06:08:44.515Z,63.80
2022-09-08T06:11:14.802Z,63.80
2022-09-08T06:13:45.098Z,63.70
2022-09-08T06:16:18.688Z,63.60
2022-09-08T06:18:50.061Z,63.70
2022-09-08T06:21:26.441Z,63.80
2022-09-08T06:24:02.376Z,63.70
2022-09-08T06:26:51.539Z,63.90
2022-09-08T06:29:48.702Z,64.00
2022-09-08T06:32:25.158Z,64.10
2022-09-08T06:35:18.019Z,64.00
2022-09-08T06:37:51.396Z,64.20
2022-09-08T06:40:33.973Z,64.20
2022-09-08T06:43:27.615Z,64.30
2022-09-08T06:46:00.218Z,64.10
2022-09-08T06:48:41.069Z,64.00
2022-09-08T06:51:34.500Z,63.60
2022-09-08T06:54:13.282Z,63.40
2022-09-08T07:00:12.428Z,63.50
2022-09-08T07:03:09.056Z,63.60
2022-09-08T07:05:54.239Z,63.50
2022-09-08T07:08:45.515Z,63.60
2022-09-08T07:11:27.616Z,63.60
2022-09-08T07:14:08.505Z,63.60
2022-09-08T07:16:50.432Z,63.60
2022-09-08T07:19:43.593Z,63.40
2022-09-08T07:25:31.821Z,63.40
2022-09-08T07:28:21.937Z,63.30
2022-09-08T07:31:04.637Z,63.30
2022-09-08T07:33:46.700Z,63.30
2022-09-08T07:36:29.165Z,63.20
2022-09-08T07:39:01.315Z,63.30
2022-09-08T07:41:52.892Z,63.30
2022-09-08T07:44:24.018Z,63.10
2022-09-08T07:47:21.815Z,63.20
2022-09-08T07:50:09.690Z,63.10
2022-09-08T07:52:53.319Z,63.00
2022-09-08T07:55:26.679Z,63.10
2022-09-08T07:57:59.918Z,63.00
2022-09-08T08:00:39.635Z,63.00
2022-09-08T08:03:25.517Z,62.90
2022-09-08T08:06:17.521Z,62.90
2022-09-08T08:09:10.839Z,62.80
2022-09-08T08:12:19.077Z,62.80
2022-09-08T08:15:28.808Z,63.10
2022-09-08T08:18:04.798Z,63.10
2022-09-08T08:20:46.308Z,63.20
2022-09-08T08:23:58.625Z,63.10
2022-09-08T08:26:46.990Z,63.00
2022-09-08T08:29:33.967Z,63.20
2022-09-08T08:35:31.401Z,63.30
2022-09-08T08:38:02.721Z,63.40
2022-09-08T08:41:03.048Z,63.40
2022-09-08T08:43:36.151Z,63.50
2022-09-08T08:46:27.303Z,63.50
2022-09-08T08:49:23.094Z,63.50
2022-09-08T08:52:22.647Z,63.70
2022-09-08T08:55:38.387Z,63.80
2022-09-08T08:58:40.162Z,63.80
2022-09-08T09:01:19.895Z,63.80
2022-09-08T09:04:08.035Z,63.90
2022-09-08T09:06:56.205Z,64.20
2022-09-08T09:09:48.690Z,64.30
2022-09-08T09:12:33.674Z,64.50
2022-09-08T09:18:28.802Z,64.20
2022-09-08T09:21:05.563Z,64.30
2022-09-08T09:23:58.795Z,64.20
2022-09-08T09:26:33.830Z,64.00
2022-09-08T09:29:17.732Z,64.00
2022-09-08T09:32:23.160Z,64.10
2022-09-08T09:35:09.563Z,63.90
2022-09-08T09:38:20.193Z,64.00
2022-09-08T09:41:08.398Z,64.00
2022-09-08T09:43:59.699Z,63.90
2022-09-08T09:47:11.059Z,63.90
2022-09-08T09:49:57.492Z,63.90
2022-09-08T09:52:50.984Z,64.00
2022-09-08T09:55:47.461Z,64.00
2022-09-08T09:58:49.662Z,63.90
2022-09-08T10:01:53.140Z,63.80
2022-09-08T10:04:45.382Z,63.90
2022-09-08T10:07:27.571Z,63.90
2022-09-08T10:10:25.114Z,63.80
2022-09-08T10:13:31.574Z,63.80
2022-09-08T10:16:19.947Z,63.70
2022-09-08T10:19:00.831Z,63.90
2022-09-08T10:21:39.978Z,63.80
2022-09-08T10:24:10.132Z,63.70
2022-09-08T10:26:43.554Z,63.70
2022-09-08T10:29:37.310Z,63.70
2022-09-08T10:32:44.367Z,63.60
2022-09-08T10:35:52.679Z,63.70
2022-09-08T10:38:50.349Z,63.60
2022-09-08T10:41:57.052Z,63.60
2022-09-08T10:44:59.660Z,63.70
2022-09-08T10:47:41.519Z,63.60
2022-09-08T10:50:17.780Z,63.70
2022-09-08T10:53:16.723Z,63.70
2022-09-08T10:56:17.487Z,63.60
2022-09-08T10:58:47.995Z,63.60
2022-09-08T11:01:42.294Z,63.60
2022-09-08T11:05:01.547Z,63.60
2022-09-08T11:08:05.586Z,63.50
2022-09-08T11:10:54.014Z,63.60
2022-09-08T11:13:46.096Z,63.60
2022-09-08T11:16:42.115Z,63.60
2022-09-08T11:19:37.927Z,63.60
2022-09-08T11:22:23.876Z,63.60
2022-09-08T11:25:17.102Z,63.70
2022-09-08T11:28:11.529Z,63.60
2022-09-08T11:30:47.852Z,63.80
2022-09-08T11:34:12.593Z,63.80
2022-09-08T11:37:26.459Z,63.60
2022-09-08T11:40:33.167Z,63.80
2022-09-08T11:43:33.997Z,63.70
2022-09-08T11:46:32.956Z,63.70
2022-09-08T11:52:31.999Z,63.70
2022-09-08T11:55:45.475Z,63.90
2022-09-08T11:59:05.495Z,63.70
2022-09-08T12:01:54.087Z,63.70
2022-09-08T12:08:09.137Z,63.80
2022-09-08T12:11:08.522Z,63.80
2022-09-08T12:13:56.810Z,63.80
2022-09-08T12:16:38.795Z,63.90
2022-09-08T12:19:32.717Z,63.80
2022-09-08T12:22:20.405Z,63.80
2022-09-08T12:28:12.978Z,63.90
2022-09-08T12:31:27.146Z,63.90
2022-09-08T12:34:10.314Z,63.90
2022-09-08T12:36:58.617Z,64.20
2022-09-08T12:39:45.447Z,64.20
2022-09-08T12:42:36.421Z,64.30
2022-09-08T12:45:35.549Z,64.40
2022-09-08T12:48:32.565Z,64.40
2022-09-08T12:51:03.411Z,64.50
2022-09-08T12:53:51.738Z,64.50
2022-09-08T12:56:40.469Z,64.40
2022-09-08T12:59:28.671Z,64.50
2022-09-08T13:02:30.787Z,64.50
2022-09-08T13:05:20.002Z,64.50
2022-09-08T13:07:59.677Z,64.60
2022-09-08T13:10:39.695Z,64.50
2022-09-08T13:13:31.181Z,64.60
2022-09-08T13:16:33.316Z,64.40
2022-09-08T13:19:13.258Z,64.50
2022-09-08T13:21:43.378Z,64.60
2022-09-08T13:24:39.322Z,65.30
2022-09-08T13:27:23.128Z,64.60
2022-09-08T13:30:21.251Z,64.40
2022-09-08T13:33:12.726Z,64.60
2022-09-08T13:36:01.324Z,64.50
2022-09-08T13:38:47.800Z,64.40
2022-09-08T13:41:40.418Z,64.60
2022-09-08T13:44:35.322Z,64.40
2022-09-08T13:47:23.401Z,64.60
2022-09-08T13:50:23.187Z,64.60
2022-09-08T13:53:04.356Z,64.60
2022-09-08T13:56:05.359Z,64.60
2022-09-08T13:58:35.584Z,64.30
2022-09-08T14:01:24.293Z,64.50
2022-09-08T14:04:04.909Z,64.40
2022-09-08T14:07:17.228Z,64.50
2022-09-08T14:10:20.103Z,64.50
2022-09-08T14:13:00.097Z,64.60
2022-09-08T14:15:31.038Z,64.60
2022-09-08T14:18:28.475Z,64.60
2022-09-08T14:21:16.943Z,64.60
2022-09-08T14:24:08.546Z,64.60
2022-09-08T14:26:55.427Z,64.60
2022-09-08T14:29:37.153Z,64.60
2022-09-08T14:32:29.198Z,64.70
2022-09-08T14:35:19.805Z,64.60
2022-09-08T14:38:03.097Z,64.60
2022-09-08T14:41:08.054Z,64.60
2022-09-08T14:43:50.106Z,64.50
2022-09-08T14:46:35.693Z,64.60
2022-09-08T14:49:31.003Z,64.60
2022-09-08T14:52:06.926Z,64.60
2022-09-08T14:54:49.245Z,64.60
2022-09-08T14:57:33.923Z,64.60
2022-09-08T15:00:19.271Z,64.60
2022-09-08T15:03:15.616Z,64.70
2022-09-08T15:05:53.872Z,64.70
2022-09-08T15:08:41.403Z,64.70
2022-09-08T15:11:15.549Z,64.70
2022-09-08T15:14:12.884Z,64.80
2022-09-08T15:16:59.053Z,64.80
2022-09-08T15:19:31.065Z,64.80
2022-09-08T15:22:02.107Z,65.00
2022-09-08T15:24:54.498Z,64.90
2022-09-08T15:27:32.740Z,64.70
2022-09-08T15:30:25.810Z,64.80
2022-09-08T15:33:10.047Z,64.70
2022-09-08T15:35:57.345Z,64.70
2022-09-08T15:38:51.784Z,64.60
2022-09-08T15:41:27.916Z,64.50
2022-09-08T15:44:31.119Z,64.60
2022-09-08T15:47:17.880Z,64.40
2022-09-08T15:50:10.879Z,64.30
2022-09-08T15:52:58.965Z,64.30
2022-09-08T15:55:41.609Z,64.50
2022-09-08T15:58:34.591Z,64.40
2022-09-08T16:01:37.089Z,64.30
2022-09-08T16:04:23.494Z,64.20
2022-09-08T16:07:07.606Z,64.20
2022-09-08T16:10:04.908Z,64.30
2022-09-08T16:13:01.968Z,64.20
2022-09-08T16:15:54.857Z,64.30
2022-09-08T16:18:47.396Z,64.30
2022-09-08T16:21:28.818Z,64.20
2022-09-08T16:24:12.666Z,64.30
2022-09-08T16:26:52.813Z,64.20
2022-09-08T16:30:08.671Z,64.30
2022-09-08T16:32:50.422Z,64.10
2022-09-08T16:35:30.294Z,64.30
2022-09-08T16:38:00.878Z,64.10
2022-09-08T16:40:32.292Z,64.20
2022-09-08T16:43:15.663Z,64.20
2022-09-08T16:45:48.888Z,64.10
2022-09-08T16:48:36.034Z,64.10
2022-09-08T16:51:24.479Z,64.10
2022-09-08T16:54:08.622Z,64.10
2022-09-08T16:56:58.034Z,64.10
2022-09-08T16:59:47.959Z,64.00
2022-09-08T17:02:55.058Z,64.00
2022-09-08T17:05:36.868Z,64.00
2022-09-08T17:08:28.373Z,64.10
2022-09-08T17:11:11.297Z,64.00
2022-09-08T17:13:42.264Z,64.10
2022-09-08T17:16:36.409Z,64.00
2022-09-08T17:19:38.450Z,64.00
2022-09-08T17:22:41.024Z,64.00
2022-09-08T17:25:25.671Z,63.90
2022-09-08T17:28:15.593Z,64.10
2022-09-08T17:31:16.284Z,64.10
2022-09-08T17:34:13.332Z,64.00
2022-09-08T17:36:58.658Z,64.00
2022-09-08T17:40:05.737Z,64.00
2022-09-08T17:42:42.676Z,64.00
2022-09-08T17:45:34.161Z,64.10
2022-09-08T17:48:19.754Z,64.00
2022-09-08T17:51:08.192Z,63.90
2022-09-08T17:53:46.082Z,64.10
2022-09-08T17:56:34.018Z,64.00
2022-09-08T17:59:27.205Z,64.10
2022-09-08T18:02:16.401Z,63.90
2022-09-08T18:04:53.113Z,63.90
2022-09-08T18:07:24.065Z,64.10
2022-09-08T18:10:16.920Z,64.10
2022-09-08T18:12:52.997Z,64.00
2022-09-08T18:15:29.381Z,64.00
2022-09-08T18:18:02.663Z,64.00
2022-09-08T18:20:35.778Z,64.00
2022-09-08T18:23:13.111Z,64.00
2022-09-08T18:26:10.407Z,63.90
2022-09-08T18:28:47.492Z,63.90
2022-09-08T18:31:32.595Z,64.00
2022-09-08T18:34:32.985Z,64.00
2022-09-08T18:37:19.482Z,63.90
2022-09-08T18:40:16.937Z,64.00
2022-09-08T18:43:19.798Z,64.00
2022-09-08T18:46:06.026Z,64.00
2022-09-08T18:48:36.593Z,64.10
2022-09-08T18:51:35.327Z,64.10
2022-09-08T18:54:47.015Z,64.00
2022-09-08T18:57:43.240Z,64.00
2022-09-08T19:00:25.190Z,64.10
2022-09-08T19:03:12.173Z,64.20
2022-09-08T19:05:43.084Z,64.20
2022-09-08T19:08:36.491Z,64.20
2022-09-08T19:11:38.262Z,64.10
2022-09-08T19:14:49.539Z,64.10
2022-09-08T19:17:56.726Z,64.20
2022-09-08T19:20:36.555Z,64.20
2022-09-08T19:23:27.944Z,64.30
2022-09-08T19:26:19.486Z,64.30
2022-09-08T19:29:11.455Z,64.20
2022-09-08T19:31:55.819Z,64.30
2022-09-08T19:34:48.777Z,64.30
2022-09-08T19:37:29.210Z,64.30
2022-09-08T19:40:18.378Z,64.30
2022-09-08T19:42:54.838Z,64.20
2022-09-08T19:45:28.380Z,64.40
2022-09-08T19:48:18.591Z,64.30
2022-09-08T19:51:13.198Z,64.20
2022-09-08T19:53:46.180Z,64.30
2022-09-08T19:56:40.544Z,64.50
2022-09-08T19:59:33.645Z,64.30
2022-09-08T20:02:26.457Z,64.30
2022-09-08T20:05:05.779Z,64.30
2022-09-08T20:07:35.945Z,64.40
2022-09-08T20:10:36.945Z,64.50
2022-09-08T20:13:23.726Z,64.30
2022-09-08T20:16:16.746Z,64.40
2022-09-08T20:19:22.333Z,64.50
2022-09-08T20:21:58.516Z,64.40
2022-09-08T20:25:04.961Z,64.60
2022-09-08T20:28:06.589Z,64.50
2022-09-08T20:31:02.486Z,64.50
2022-09-08T20:33:49.698Z,64.40
2022-09-08T20:36:42.690Z,64.50
2022-09-08T20:39:38.158Z,64.50
2022-09-08T20:42:11.651Z,64.50
2022-09-08T20:44:54.017Z,64.60
2022-09-08T20:47:34.716Z,64.60
2022-09-08T20:50:16.761Z,64.60
2022-09-08T20:53:09.521Z,64.60
2022-09-08T20:55:41.255Z,64.50
2022-09-08T20:58:20.993Z,64.60
2022-09-08T21:00:53.600Z,64.60
2022-09-08T21:03:33.680Z,64.60
2022-09-08T21:06:30.166Z,64.60
2022-09-08T21:09:06.304Z,64.50
2022-09-08T21:11:37.843Z,64.60
2022-09-08T21:14:40.490Z,64.80
2022-09-08T21:17:19.683Z,64.90
2022-09-08T21:20:15.563Z,64.50
2022-09-08T21:22:52.156Z,65.00
2022-09-08T21:25:26.438Z,65.00
2022-09-08T21:28:26.891Z,65.10
2022-09-08T21:31:28.501Z,65.30
2022-09-08T21:34:41.400Z,65.50
2022-09-08T21:37:22.538Z,65.60
2022-09-08T21:40:40.537Z,65.50
2022-09-08T21:43:17.964Z,65.70
2022-09-08T21:45:59.454Z,65.70
2022-09-08T21:48:30.873Z,65.70
2022-09-08T21:51:03.181Z,65.80
2022-09-08T21:54:03.724Z,66.50
2022-09-08T21:56:50.708Z,65.60
2022-09-08T21:59:26.978Z,65.70
2022-09-08T22:02:03.494Z,65.50
2022-09-08T22:04:50.769Z,65.40
2022-09-08T22:07:32.278Z,65.20
2022-09-08T22:10:02.552Z,65.10
2022-09-08T22:12:36.189Z,65.20
2022-09-08T22:15:09.403Z,65.10
2022-09-08T22:17:57.715Z,65.10
2022-09-08T22:20:43.782Z,65.20
2022-09-08T22:23:36.765Z,65.10
2022-09-08T22:26:20.299Z,64.70
2022-09-08T22:28:52.279Z,64.70
2022-09-08T22:31:43.877Z,64.70
2022-09-08T22:34:38.185Z,64.80
2022-09-08T22:37:37.067Z,64.70
2022-09-08T22:40:49.278Z,64.40
2022-09-08T22:43:45.411Z,64.30
2022-09-08T22:46:37.593Z,64.30
2022-09-08T22:49:18.135Z,64.30
2022-09-08T22:52:14.256Z,64.20
2022-09-08T22:55:02.529Z,64.30
2022-09-08T22:57:37.751Z,64.00
2022-09-08T23:00:23.930Z,64.00
2022-09-08T23:03:27.307Z,63.80
2022-09-08T23:06:03.283Z,63.60
2022-09-08T23:08:43.596Z,63.90
2022-09-08T23:11:22.606Z,63.80
2022-09-08T23:14:17.255Z,63.80
2022-09-08T23:17:22.048Z,63.50
2022-09-08T23:20:07.481Z,63.50
2022-09-08T23:22:55.964Z,63.60
2022-09-08T23:25:53.794Z,63.60
2022-09-08T23:28:30.735Z,63.40
2022-09-08T23:31:23.406Z,63.50
2022-09-08T23:34:20.848Z,63.30
2022-09-08T23:37:06.669Z,63.40
2022-09-08T23:39:55.627Z,63.40
2022-09-08T23:42:48.591Z,63.20
2022-09-08T23:45:36.382Z,63.20
2022-09-08T23:48:10.085Z,63.30
2022-09-08T23:50:41.417Z,63.30
2022-09-08T23:53:17.244Z,63.30
2022-09-08T23:55:51.718Z,63.30
2022-09-08T23:58:21.917Z,63.20
